createdAt,value
2023-01-13T00:00:38.460Z,22.67
2023-01-13T00:03:08.209Z,18.75
2023-01-13T00:05:36.424Z,23.15
2023-01-13T00:08:06.441Z,18.23
2023-01-13T00:10:34.643Z,25.88
2023-01-13T00:13:04.282Z,17.17
2023-01-13T00:15:32.700Z,20.23
2023-01-13T00:18:00.943Z,18.15
2023-01-13T00:20:30.559Z,15.55
2023-01-13T00:23:00.230Z,18.35
2023-01-13T00:25:28.579Z,18.45
2023-01-13T00:27:56.807Z,26.10
2023-01-13T00:30:25.200Z,23.35
2023-01-13T00:32:53.822Z,18.02
2023-01-13T00:35:22.011Z,21.92
2023-01-13T00:37:51.615Z,17.80
2023-01-13T00:40:19.937Z,16.85
2023-01-13T00:43:05.419Z,16.77
2023-01-13T00:45:33.660Z,21.33
2023-01-13T00:48:01.884Z,18.42
2023-01-13T00:50:30.645Z,19.95
2023-01-13T00:53:02.112Z,19.38
2023-01-13T00:55:33.127Z,21.45
2023-01-13T00:58:03.685Z,22.58
2023-01-13T01:00:32.468Z,16.35
2023-01-13T01:03:00.869Z,18.13
2023-01-13T01:05:29.142Z,20.63
2023-01-13T01:07:57.456Z,17.77
2023-01-13T01:10:27.373Z,22.83
2023-01-13T01:12:55.678Z,18.88
2023-01-13T01:15:23.894Z,16.05
2023-01-13T01:17:52.323Z,20.25
2023-01-13T01:20:20.580Z,19.83
2023-01-13T01:22:48.823Z,18.70
2023-01-13T01:25:17.243Z,17.38
2023-01-13T01:27:46.806Z,18.35
2023-01-13T01:30:16.124Z,18.27
2023-01-13T01:32:44.635Z,24.42
2023-01-13T01:35:12.868Z,20.55
2023-01-13T01:37:41.128Z,22.10
2023-01-13T01:40:10.654Z,15.95
2023-01-13T01:43:04.845Z,19.33
2023-01-13T01:45:34.680Z,16.05
2023-01-13T01:48:05.452Z,17.80
2023-01-13T01:50:34.662Z,17.25
2023-01-13T01:53:09.588Z,20.13
2023-01-13T01:55:38.965Z,17.75
2023-01-13T01:58:12.067Z,14.63
2023-01-13T02:00:41.738Z,16.40
2023-01-13T02:03:12.040Z,16.88
2023-01-13T02:05:40.333Z,20.20
2023-01-13T02:08:11.005Z,19.42
2023-01-13T02:10:40.876Z,15.02
2023-01-13T02:13:12.293Z,17.45
2023-01-13T02:15:49.109Z,15.85
2023-01-13T02:18:32.814Z,16.17
2023-01-13T02:21:23.488Z,16.23
2023-01-13T02:24:38.385Z,16.15
2023-01-13T02:27:45.029Z,19.85
2023-01-13T02:30:59.730Z,14.27
2023-01-13T02:33:45.706Z,15.77
2023-01-13T02:36:22.238Z,17.38
2023-01-13T02:38:53.615Z,18.65
2023-01-13T02:41:46.532Z,16.65
2023-01-13T02:44:19.931Z,16.02
2023-01-13T02:46:54.955Z,18.67
2023-01-13T02:49:30.794Z,17.30
2023-01-13T02:52:06.001Z,16.45
2023-01-13T02:54:36.528Z,15.40
2023-01-13T02:57:08.019Z,16.00
2023-01-13T02:59:38.683Z,17.80
2023-01-13T03:02:11.928Z,15.90
2023-01-13T03:04:56.423Z,19.00
2023-01-13T03:07:58.803Z,16.20
2023-01-13T03:10:44.312Z,19.15
2023-01-13T03:13:22.397Z,16.10
2023-01-13T03:15:59.701Z,18.42
2023-01-13T03:18:39.899Z,16.75
2023-01-13T03:21:13.379Z,20.52
2023-01-13T03:23:51.502Z,15.77
2023-01-13T03:26:27.702Z,17.33
2023-01-13T03:29:01.582Z,17.13
2023-01-13T03:31:33.290Z,13.02
2023-01-13T03:34:06.563Z,14.55
2023-01-13T03:36:37.335Z,19.13
2023-01-13T03:39:12.020Z,16.35
2023-01-13T03:41:47.155Z,19.30
2023-01-13T03:44:23.119Z,16.75
2023-01-13T03:46:59.823Z,16.80
2023-01-13T03:49:34.926Z,16.15
2023-01-13T03:52:08.511Z,22.25
2023-01-13T03:54:43.399Z,18.95
2023-01-13T03:57:15.917Z,15.77
2023-01-13T03:59:49.361Z,16.65
2023-01-13T04:02:24.059Z,19.30
2023-01-13T04:04:58.274Z,19.02
2023-01-13T04:07:34.166Z,17.98
2023-01-13T04:10:06.495Z,17.73
2023-01-13T04:12:58.974Z,17.65
2023-01-13T04:15:29.251Z,18.48
2023-01-13T04:18:03.875Z,19.02
2023-01-13T04:20:33.613Z,14.70
2023-01-13T04:23:01.851Z,15.95
2023-01-13T04:25:30.113Z,16.73
2023-01-13T04:27:58.303Z,18.73
2023-01-13T04:30:26.650Z,16.92
2023-01-13T04:32:55.077Z,13.85
2023-01-13T04:35:23.430Z,18.27
2023-01-13T04:37:52.957Z,19.67
2023-01-13T04:40:21.182Z,15.65
2023-01-13T04:42:50.073Z,17.98
2023-01-13T04:45:18.419Z,16.45
2023-01-13T04:47:46.688Z,19.23
2023-01-13T04:50:14.987Z,17.02
2023-01-13T04:52:43.094Z,11.98
2023-01-13T04:55:12.923Z,14.77
2023-01-13T04:57:41.103Z,14.57
2023-01-13T05:00:11.703Z,16.17
2023-01-13T05:02:39.897Z,18.77
2023-01-13T05:05:08.610Z,17.85
2023-01-13T05:07:36.904Z,17.45
2023-01-13T05:10:05.805Z,14.30
2023-01-13T05:12:52.705Z,14.80
2023-01-13T05:15:38.722Z,14.57
2023-01-13T05:18:07.308Z,14.90
2023-01-13T05:20:35.495Z,15.43
2023-01-13T05:23:21.336Z,15.57
2023-01-13T05:25:50.060Z,12.35
2023-01-13T05:28:19.567Z,18.02
2023-01-13T05:30:49.488Z,13.80
2023-01-13T05:33:20.299Z,11.35
2023-01-13T05:35:49.119Z,15.60
2023-01-13T05:38:18.638Z,12.90
2023-01-13T05:41:04.716Z,17.15
2023-01-13T05:43:35.103Z,13.75
2023-01-13T05:46:05.578Z,11.65
2023-01-13T05:48:35.806Z,14.80
2023-01-13T05:51:05.782Z,12.40
2023-01-13T05:53:34.872Z,12.07
2023-01-13T05:56:05.903Z,13.70
2023-01-13T05:58:35.974Z,15.00
2023-01-13T06:01:06.823Z,19.85
2023-01-13T06:03:35.371Z,16.80
2023-01-13T06:06:04.081Z,14.20
2023-01-13T06:08:33.032Z,16.67
2023-01-13T06:11:01.561Z,13.40
2023-01-13T06:13:31.106Z,12.48
2023-01-13T06:16:01.424Z,16.92
2023-01-13T06:18:30.136Z,13.95
2023-01-13T06:20:58.560Z,13.55
2023-01-13T06:23:27.158Z,15.20
2023-01-13T06:26:03.422Z,17.90
2023-01-13T06:28:33.312Z,13.60
2023-01-13T06:31:07.306Z,13.40
2023-01-13T06:33:39.799Z,15.95
2023-01-13T06:36:13.644Z,15.15
2023-01-13T06:38:46.332Z,17.63
2023-01-13T06:41:14.809Z,15.32
2023-01-13T06:43:42.053Z,14.00
2023-01-13T06:46:11.797Z,12.45
2023-01-13T06:48:39.942Z,18.02
2023-01-13T06:51:08.186Z,13.18
2023-01-13T06:53:36.345Z,18.38
2023-01-13T06:56:04.682Z,13.32
2023-01-13T06:58:32.853Z,17.88
2023-01-13T07:01:01.924Z,15.23
2023-01-13T07:03:31.590Z,11.57
2023-01-13T07:06:00.477Z,13.02
2023-01-13T07:08:29.071Z,28.88
2023-01-13T07:10:57.248Z,11.07
2023-01-13T07:13:42.820Z,16.02
2023-01-13T07:16:11.193Z,12.68
2023-01-13T07:18:40.847Z,13.07
2023-01-13T07:21:12.037Z,16.17
2023-01-13T07:23:41.734Z,17.90
2023-01-13T07:26:11.176Z,14.27
2023-01-13T07:28:40.371Z,14.57
2023-01-13T07:31:15.857Z,14.10
2023-01-13T07:33:45.742Z,12.07
2023-01-13T07:36:14.125Z,12.05
2023-01-13T07:38:44.557Z,13.93
2023-01-13T07:41:31.822Z,14.68
2023-01-13T07:44:00.394Z,12.85
2023-01-13T07:46:28.602Z,12.98
2023-01-13T07:48:58.242Z,12.85
2023-01-13T07:51:26.545Z,14.23
2023-01-13T07:53:55.203Z,10.50
2023-01-13T07:56:23.732Z,12.63
2023-01-13T07:58:53.026Z,18.55
2023-01-13T08:01:21.583Z,15.38
2023-01-13T08:03:49.955Z,12.27
2023-01-13T08:06:19.619Z,13.10
2023-01-13T08:08:47.795Z,15.68
2023-01-13T08:11:16.013Z,13.75
2023-01-13T08:13:44.445Z,10.85
2023-01-13T08:16:15.020Z,12.00
2023-01-13T08:18:44.014Z,13.30
2023-01-13T08:21:14.204Z,11.60
2023-01-13T08:23:45.470Z,13.52
2023-01-13T08:26:17.231Z,10.07
2023-01-13T08:28:45.789Z,12.35
2023-01-13T08:31:16.228Z,10.43
2023-01-13T08:33:44.765Z,12.48
2023-01-13T08:36:13.988Z,13.13
2023-01-13T08:38:43.799Z,11.52
2023-01-13T08:41:13.033Z,10.43
2023-01-13T08:43:41.268Z,9.50
2023-01-13T08:46:09.537Z,12.70
2023-01-13T08:48:37.888Z,8.55
2023-01-13T08:51:08.322Z,9.40
2023-01-13T08:53:37.068Z,13.73
2023-01-13T08:56:11.905Z,11.07
2023-01-13T08:58:41.012Z,11.13
2023-01-13T09:01:10.225Z,13.68
2023-01-13T09:03:39.154Z,12.27
2023-01-13T09:06:07.831Z,12.98
2023-01-13T09:08:36.116Z,9.52
2023-01-13T09:11:25.141Z,12.38
2023-01-13T09:13:53.746Z,15.80
2023-01-13T09:16:21.883Z,14.88
2023-01-13T09:18:50.114Z,12.20
2023-01-13T09:21:21.142Z,11.23
2023-01-13T09:23:49.658Z,10.48
2023-01-13T09:26:21.991Z,10.68
2023-01-13T09:28:50.405Z,11.15
2023-01-13T09:31:20.013Z,13.95
2023-01-13T09:34:05.802Z,17.02
2023-01-13T09:36:34.079Z,7.60
2023-01-13T09:39:02.407Z,10.07
2023-01-13T09:41:51.539Z,11.65
2023-01-13T09:44:26.551Z,11.38
2023-01-13T09:47:00.710Z,10.50
2023-01-13T09:49:35.587Z,10.05
2023-01-13T09:52:07.734Z,10.52
2023-01-13T09:54:41.153Z,11.45
2023-01-13T09:57:12.565Z,10.52
2023-01-13T09:59:40.970Z,10.60
2023-01-13T10:02:28.040Z,10.32
2023-01-13T10:05:11.445Z,8.38
2023-01-13T10:07:45.072Z,9.60
2023-01-13T10:10:19.180Z,10.70
2023-01-13T10:13:07.236Z,11.10
2023-01-13T10:15:37.095Z,10.63
2023-01-13T10:18:15.139Z,8.95
2023-01-13T10:20:53.489Z,8.55
2023-01-13T10:23:42.223Z,9.52
2023-01-13T10:26:25.219Z,9.23
2023-01-13T10:28:54.281Z,10.02
2023-01-13T10:31:23.412Z,10.00
2023-01-13T10:33:59.807Z,12.05
2023-01-13T10:36:28.342Z,8.27
2023-01-13T10:39:09.150Z,13.35
2023-01-13T10:41:37.465Z,7.70
2023-01-13T10:44:09.484Z,13.75
2023-01-13T10:46:52.701Z,12.02
2023-01-13T10:49:32.763Z,9.18
2023-01-13T10:52:02.082Z,8.38
2023-01-13T10:54:31.324Z,13.60
2023-01-13T10:57:17.281Z,10.27
2023-01-13T10:59:45.671Z,12.43
2023-01-13T11:02:26.970Z,11.60
2023-01-13T11:05:11.665Z,12.82
2023-01-13T11:07:41.616Z,9.48
2023-01-13T11:10:21.927Z,11.07
2023-01-13T11:12:59.879Z,10.93
2023-01-13T11:15:40.391Z,12.05
2023-01-13T11:18:16.800Z,8.23
2023-01-13T11:20:49.009Z,16.50
2023-01-13T11:23:25.437Z,11.63
2023-01-13T11:25:57.741Z,10.07
2023-01-13T11:28:39.512Z,11.27
2023-01-13T11:31:16.342Z,10.27
2023-01-13T11:33:49.884Z,10.18
2023-01-13T11:36:22.883Z,10.50
2023-01-13T11:38:53.355Z,12.20
2023-01-13T11:41:43.817Z,12.02
2023-01-13T11:44:20.467Z,10.88
2023-01-13T11:46:50.727Z,13.00
2023-01-13T11:49:26.556Z,9.80
2023-01-13T11:52:01.790Z,11.77
2023-01-13T11:54:48.888Z,11.13
2023-01-13T11:57:45.521Z,12.35
2023-01-13T12:00:28.474Z,14.57
2023-01-13T12:03:07.801Z,11.27
2023-01-13T12:05:38.894Z,11.30
2023-01-13T12:08:18.985Z,12.05
2023-01-13T12:11:02.541Z,11.38
2023-01-13T12:13:41.163Z,12.60
2023-01-13T12:16:26.405Z,11.95
2023-01-13T12:19:28.062Z,10.95
2023-01-13T12:22:13.390Z,11.82
2023-01-13T12:24:49.384Z,13.38
2023-01-13T12:27:24.219Z,15.38
2023-01-13T12:29:58.408Z,15.23
2023-01-13T12:32:34.284Z,13.13
2023-01-13T12:35:15.785Z,13.80
2023-01-13T12:37:51.257Z,13.80
2023-01-13T12:40:34.783Z,12.48
2023-01-13T12:43:31.707Z,13.95
2023-01-13T12:46:33.456Z,13.20
2023-01-13T12:49:18.292Z,11.93
2023-01-13T12:52:10.215Z,12.52
2023-01-13T12:55:15.903Z,14.82
2023-01-13T12:58:17.420Z,12.77
2023-01-13T13:00:59.177Z,12.15
2023-01-13T13:03:35.839Z,11.85
2023-01-13T13:06:08.957Z,12.25
2023-01-13T13:08:54.064Z,11.80
2023-01-13T13:11:56.120Z,12.95
2023-01-13T13:15:22.062Z,12.30
2023-01-13T13:18:21.083Z,11.13
2023-01-13T13:21:05.017Z,13.32
2023-01-13T13:24:11.479Z,12.73
2023-01-13T13:26:42.523Z,13.60
2023-01-13T13:29:29.862Z,14.00
2023-01-13T13:32:28.867Z,12.43
2023-01-13T13:35:08.316Z,10.77
2023-01-13T13:38:05.461Z,13.00
2023-01-13T13:40:57.980Z,14.18
2023-01-13T13:43:44.292Z,10.57
2023-01-13T13:46:42.834Z,13.05
2023-01-13T13:49:13.289Z,12.80
2023-01-13T13:51:47.171Z,13.45
2023-01-13T13:54:19.673Z,11.93
2023-01-13T13:56:50.288Z,10.85
2023-01-13T13:59:20.682Z,15.00
2023-01-13T14:02:01.632Z,11.75
2023-01-13T14:04:33.621Z,12.98
2023-01-13T14:07:04.999Z,12.18
2023-01-13T14:09:42.539Z,14.48
2023-01-13T14:12:18.028Z,13.65
2023-01-13T14:14:47.363Z,13.13
2023-01-13T14:17:22.706Z,13.95
2023-01-13T14:20:05.032Z,17.88
2023-01-13T14:22:33.977Z,32.45
2023-01-13T14:25:02.197Z,24.15
2023-01-13T14:27:31.779Z,33.35
2023-01-13T14:30:01.795Z,24.45
2023-01-13T14:32:35.063Z,14.70
2023-01-13T14:35:07.167Z,16.17
2023-01-13T14:37:39.557Z,14.30
2023-01-13T14:40:28.549Z,12.05
2023-01-13T14:42:59.941Z,13.82
2023-01-13T14:45:28.447Z,13.10
2023-01-13T14:47:56.760Z,14.75
2023-01-13T14:50:31.574Z,15.20
2023-01-13T14:53:00.845Z,15.20
2023-01-13T14:55:31.667Z,13.23
2023-01-13T14:58:18.083Z,14.40
2023-01-13T15:00:46.427Z,15.77
2023-01-13T15:03:16.143Z,19.20
2023-01-13T15:05:51.044Z,16.95
2023-01-13T15:08:38.063Z,15.43
2023-01-13T15:11:08.560Z,15.82
2023-01-13T15:13:48.856Z,16.65
2023-01-13T15:16:25.189Z,16.70
2023-01-13T15:18:54.336Z,14.75
2023-01-13T15:21:25.155Z,16.20
2023-01-13T15:23:53.525Z,14.75
2023-01-13T15:26:24.349Z,17.63
2023-01-13T15:28:53.583Z,14.55
2023-01-13T15:31:22.457Z,13.02
2023-01-13T15:33:51.038Z,14.10
2023-01-13T15:36:24.644Z,14.13
2023-01-13T15:38:52.971Z,18.55
2023-01-13T15:41:41.895Z,16.40
2023-01-13T15:44:30.008Z,17.48
2023-01-13T15:46:59.226Z,15.80
2023-01-13T15:49:34.874Z,16.17
2023-01-13T15:52:07.578Z,17.23
2023-01-13T15:54:35.793Z,17.02
2023-01-13T15:57:04.063Z,13.50
2023-01-13T15:59:33.936Z,15.90
2023-01-13T16:02:02.091Z,15.30
2023-01-13T16:04:30.319Z,17.45
2023-01-13T16:06:58.853Z,19.38
2023-01-13T16:09:28.469Z,15.38
2023-01-13T16:11:56.674Z,16.55
2023-01-13T16:14:24.925Z,18.98
2023-01-13T16:16:53.100Z,19.65
2023-01-13T16:19:21.357Z,14.00
2023-01-13T16:21:49.607Z,18.55
2023-01-13T16:24:17.846Z,14.05
2023-01-13T16:26:47.494Z,15.93
2023-01-13T16:29:15.815Z,12.82
2023-01-13T16:31:44.002Z,17.58
2023-01-13T16:34:12.251Z,17.42
2023-01-13T16:36:40.517Z,17.35
2023-01-13T16:39:20.993Z,16.30
2023-01-13T16:41:50.778Z,19.88
2023-01-13T16:44:19.106Z,16.45
2023-01-13T16:46:47.755Z,20.48
2023-01-13T16:49:17.233Z,17.35
2023-01-13T16:51:45.638Z,19.00
2023-01-13T16:54:14.358Z,16.25
2023-01-13T16:56:42.660Z,18.00
2023-01-13T16:59:14.462Z,19.25
2023-01-13T17:01:45.827Z,17.25
2023-01-13T17:04:16.804Z,19.05
2023-01-13T17:06:49.551Z,16.98
2023-01-13T17:09:19.977Z,16.98
2023-01-13T17:11:48.356Z,21.17
2023-01-13T17:14:19.620Z,18.65
2023-01-13T17:16:48.445Z,18.75
2023-01-13T17:19:19.020Z,19.13
2023-01-13T17:21:48.145Z,15.35
2023-01-13T17:24:16.289Z,18.58
2023-01-13T17:26:47.627Z,20.95
2023-01-13T17:29:19.299Z,19.77
2023-01-13T17:31:47.813Z,21.33
2023-01-13T17:34:16.234Z,20.55
2023-01-13T17:36:44.719Z,23.02
2023-01-13T17:39:18.332Z,20.55
2023-01-13T17:41:46.926Z,24.33
2023-01-13T17:44:15.536Z,21.75
2023-01-13T17:46:45.726Z,23.48
2023-01-13T17:49:14.127Z,21.67
2023-01-13T17:51:48.118Z,18.85
2023-01-13T17:54:16.906Z,26.00
2023-01-13T17:56:45.474Z,20.95
2023-01-13T17:59:15.417Z,23.88
2023-01-13T18:01:45.296Z,23.52
2023-01-13T18:04:17.839Z,21.13
2023-01-13T18:06:46.510Z,21.30
2023-01-13T18:09:14.731Z,20.67
2023-01-13T18:11:43.516Z,21.10
2023-01-13T18:14:12.398Z,20.58
2023-01-13T18:16:40.983Z,27.77
2023-01-13T18:19:29.179Z,24.27
2023-01-13T18:22:14.902Z,25.38
2023-01-13T18:25:00.609Z,26.95
2023-01-13T18:27:32.314Z,25.20
2023-01-13T18:30:02.389Z,23.77
2023-01-13T18:32:33.482Z,26.63
2023-01-13T18:35:06.952Z,35.53
2023-01-13T18:37:38.538Z,26.17
2023-01-13T18:40:10.290Z,27.02
2023-01-13T18:42:54.816Z,26.10
2023-01-13T18:45:25.505Z,27.30
2023-01-13T18:47:54.631Z,25.85
2023-01-13T18:50:24.612Z,27.48
2023-01-13T18:52:53.240Z,28.30
2023-01-13T18:55:21.944Z,25.35
2023-01-13T18:57:50.530Z,24.17
2023-01-13T19:00:20.741Z,25.92
2023-01-13T19:02:50.736Z,25.33
2023-01-13T19:05:19.342Z,29.85
2023-01-13T19:07:51.829Z,25.00
2023-01-13T19:10:20.470Z,25.92
2023-01-13T19:12:48.636Z,24.40
2023-01-13T19:15:17.212Z,24.58
2023-01-13T19:17:46.714Z,25.40
2023-01-13T19:20:15.012Z,24.98
2023-01-13T19:22:43.770Z,26.10
2023-01-13T19:25:13.334Z,23.80
2023-01-13T19:27:42.809Z,21.23
2023-01-13T19:30:12.387Z,23.45
2023-01-13T19:32:40.575Z,27.05
2023-01-13T19:35:09.448Z,23.48
2023-01-13T19:37:38.446Z,19.90
2023-01-13T19:40:09.418Z,22.65
2023-01-13T19:42:56.370Z,21.02
2023-01-13T19:45:27.558Z,29.65
2023-01-13T19:47:56.274Z,24.33
2023-01-13T19:50:24.589Z,21.48
2023-01-13T19:52:52.971Z,24.20
2023-01-13T19:55:21.286Z,20.35
2023-01-13T19:57:50.987Z,22.63
2023-01-13T20:00:20.990Z,22.05
2023-01-13T20:02:51.950Z,21.02
2023-01-13T20:05:24.330Z,20.67
2023-01-13T20:07:52.994Z,20.88
2023-01-13T20:10:23.565Z,19.48
2023-01-13T20:12:53.207Z,21.52
2023-01-13T20:15:21.400Z,23.27
2023-01-13T20:17:49.677Z,18.30
2023-01-13T20:20:20.538Z,16.90
2023-01-13T20:22:50.218Z,17.08
2023-01-13T20:25:18.874Z,16.33
2023-01-13T20:27:48.412Z,15.70
2023-01-13T20:30:19.186Z,17.98
2023-01-13T20:32:47.390Z,19.08
2023-01-13T20:35:16.739Z,15.10
2023-01-13T20:37:45.091Z,17.25
2023-01-13T20:40:15.867Z,15.50
2023-01-13T20:42:45.321Z,14.82
2023-01-13T20:45:17.610Z,15.85
2023-01-13T20:47:47.777Z,11.60
2023-01-13T20:50:16.839Z,13.60
2023-01-13T20:52:45.540Z,14.15
2023-01-13T20:55:14.661Z,12.02
2023-01-13T20:57:43.076Z,11.68
2023-01-13T21:00:12.227Z,13.48
2023-01-13T21:02:41.995Z,14.20
2023-01-13T21:05:11.732Z,12.10
2023-01-13T21:07:40.023Z,13.50
2023-01-13T21:10:11.403Z,11.23
2023-01-13T21:12:57.127Z,13.68
2023-01-13T21:15:25.943Z,11.80
2023-01-13T21:18:11.480Z,11.45
2023-01-13T21:20:41.341Z,11.80
2023-01-13T21:23:10.934Z,10.93
2023-01-13T21:25:40.273Z,13.63
2023-01-13T21:28:11.857Z,10.65
2023-01-13T21:30:40.850Z,12.40
2023-01-13T21:33:09.273Z,10.07
2023-01-13T21:35:40.583Z,11.57
2023-01-13T21:38:08.850Z,13.10
2023-01-13T21:40:37.015Z,10.30
2023-01-13T21:43:22.751Z,10.00
2023-01-13T21:46:08.329Z,9.00
2023-01-13T21:48:36.773Z,10.35
2023-01-13T21:51:06.668Z,8.50
2023-01-13T21:53:34.915Z,10.35
2023-01-13T21:56:03.112Z,11.73
2023-01-13T21:58:31.310Z,9.38
2023-01-13T22:01:03.871Z,15.30
2023-01-13T22:03:52.721Z,11.98
2023-01-13T22:06:22.552Z,9.93
2023-01-13T22:08:50.746Z,8.70
2023-01-13T22:11:19.060Z,9.20
2023-01-13T22:14:04.576Z,10.60
2023-01-13T22:16:34.006Z,9.50
2023-01-13T22:19:02.266Z,10.70
2023-01-13T22:21:32.414Z,11.40
2023-01-13T22:24:00.569Z,10.45
2023-01-13T22:26:28.991Z,9.40
2023-01-13T22:28:57.652Z,12.55
2023-01-13T22:31:26.400Z,11.60
2023-01-13T22:33:55.779Z,10.00
2023-01-13T22:36:25.144Z,10.10
2023-01-13T22:38:56.572Z,13.10
2023-01-13T22:41:25.104Z,8.50
2023-01-13T22:43:53.287Z,10.95
2023-01-13T22:46:22.324Z,10.82
2023-01-13T22:48:53.709Z,11.60
2023-01-13T22:51:22.915Z,9.02
2023-01-13T22:53:51.281Z,9.13
2023-01-13T22:56:23.054Z,10.10
2023-01-13T22:58:54.839Z,10.48
2023-01-13T23:01:24.104Z,9.63
2023-01-13T23:03:52.863Z,11.98
2023-01-13T23:06:22.716Z,10.85
2023-01-13T23:08:51.284Z,12.35
2023-01-13T23:11:23.580Z,12.63
2023-01-13T23:13:52.175Z,13.90
2023-01-13T23:16:22.144Z,12.52
2023-01-13T23:18:50.677Z,14.07
2023-01-13T23:21:20.989Z,14.43
2023-01-13T23:23:49.643Z,14.45
2023-01-13T23:26:18.465Z,18.10
2023-01-13T23:28:48.560Z,14.85
2023-01-13T23:31:19.112Z,16.25
2023-01-13T23:33:48.001Z,16.98
2023-01-13T23:36:18.090Z,15.27
2023-01-13T23:38:46.689Z,22.70
2023-01-13T23:41:17.589Z,13.52
2023-01-13T23:43:52.484Z,17.70
2023-01-13T23:46:21.319Z,16.95
2023-01-13T23:48:49.709Z,16.48
2023-01-13T23:51:18.610Z,15.85
2023-01-13T23:53:48.419Z,17.38
2023-01-13T23:56:19.443Z,16.95
2023-01-13T23:58:48.375Z,15.30
